sensor_id;sensor_type;location;lat;lon;timestamp;temperature;humidity
37274;DHT22;23161;51.250;5.554;2024-01-30T00:01:00;6.60;99.90
37274;DHT22;23161;51.250;5.554;2024-01-30T00:02:32;6.60;99.90
37274;DHT22;23161;51.250;5.554;2024-01-30T00:04:03;6.60;99.90
37274;DHT22;23161;51.250;5.554;2024-01-30T00:05:34;6.50;99.90
37274;DHT22;23161;51.250;5.554;2024-01-30T00:07:05;6.50;99.90
37274;DHT22;23161;51.250;5.554;2024-01-30T00:08:36;6.50;99.90
37274;DHT22;23161;51.250;5.554;2024-01-30T00:10:07;6.50;99.90
37274;DHT22;23161;51.250;5.554;2024-01-30T00:11:38;6.50;99.90
37274;DHT22;23161;51.250;5.554;2024-01-30T00:13:09;6.50;99.90
37274;DHT22;23161;51.250;5.554;2024-01-30T00:14:42;6.50;99.90
37274;DHT22;23161;51.250;5.554;2024-01-30T00:16:24;6.60;99.90
37274;DHT22;23161;51.250;5.554;2024-01-30T00:17:55;6.50;99.90
37274;DHT22;23161;51.250;5.554;2024-01-30T00:19:26;6.50;99.90
37274;DHT22;23161;51.250;5.554;2024-01-30T00:20:56;6.50;99.90
37274;DHT22;23161;51.250;5.554;2024-01-30T00:22:27;6.50;99.90
37274;DHT22;23161;51.250;5.554;2024-01-30T00:24:01;6.50;99.90
37274;DHT22;23161;51.250;5.554;2024-01-30T00:25:32;6.40;99.90
37274;DHT22;23161;51.250;5.554;2024-01-30T00:27:04;6.40;99.90
37274;DHT22;23161;51.250;5.554;2024-01-30T00:28:35;6.40;99.90
37274;DHT22;23161;51.250;5.554;2024-01-30T00:30:06;6.40;99.90
37274;DHT22;23161;51.250;5.554;2024-01-30T00:31:37;6.40;99.90
37274;DHT22;23161;51.250;5.554;2024-01-30T00:33:09;6.30;99.90
37274;DHT22;23161;51.250;5.554;2024-01-30T00:34:41;6.30;99.90
37274;DHT22;23161;51.250;5.554;2024-01-30T00:36:12;6.30;99.90
37274;DHT22;23161;51.250;5.554;2024-01-30T00:37:42;6.30;99.90
37274;DHT22;23161;51.250;5.554;2024-01-30T00:39:13;6.30;99.90
37274;DHT22;23161;51.250;5.554;2024-01-30T00:40:46;6.40;99.90
37274;DHT22;23161;51.250;5.554;2024-01-30T00:42:17;6.40;99.90
37274;DHT22;23161;51.250;5.554;2024-01-30T00:43:48;6.40;99.90
37274;DHT22;23161;51.250;5.554;2024-01-30T00:46:51;6.40;99.90
37274;DHT22;23161;51.250;5.554;2024-01-30T00:48:22;6.50;99.90
37274;DHT22;23161;51.250;5.554;2024-01-30T00:49:53;6.40;99.90
37274;DHT22;23161;51.250;5.554;2024-01-30T00:51:24;6.50;99.90
37274;DHT22;23161;51.250;5.554;2024-01-30T00:52:55;6.60;99.90
37274;DHT22;23161;51.250;5.554;2024-01-30T00:54:26;6.50;99.90
37274;DHT22;23161;51.250;5.554;2024-01-30T00:55:57;6.50;99.90
37274;DHT22;23161;51.250;5.554;2024-01-30T00:57:28;6.60;99.90
37274;DHT22;23161;51.250;5.554;2024-01-30T00:58:59;6.60;99.90
37274;DHT22;23161;51.250;5.554;2024-01-30T01:00:30;6.60;99.90
37274;DHT22;23161;51.250;5.554;2024-01-30T01:02:02;6.60;99.90
37274;DHT22;23161;51.250;5.554;2024-01-30T01:03:33;6.70;99.90
37274;DHT22;23161;51.250;5.554;2024-01-30T01:05:05;6.80;99.90
37274;DHT22;23161;51.250;5.554;2024-01-30T01:06:36;6.90;99.90
37274;DHT22;23161;51.250;5.554;2024-01-30T01:08:07;6.90;99.90
37274;DHT22;23161;51.250;5.554;2024-01-30T01:09:38;6.90;99.90
37274;DHT22;23161;51.250;5.554;2024-01-30T01:11:09;6.90;99.90
37274;DHT22;23161;51.250;5.554;2024-01-30T01:12:40;6.90;99.90
37274;DHT22;23161;51.250;5.554;2024-01-30T01:14:11;6.90;99.90
37274;DHT22;23161;51.250;5.554;2024-01-30T01:15:42;6.90;99.90
37274;DHT22;23161;51.250;5.554;2024-01-30T01:17:13;6.90;99.90
37274;DHT22;23161;51.250;5.554;2024-01-30T01:18:44;6.90;99.90
37274;DHT22;23161;51.250;5.554;2024-01-30T01:20:15;7.00;99.90
37274;DHT22;23161;51.250;5.554;2024-01-30T01:21:46;7.10;99.90
37274;DHT22;23161;51.250;5.554;2024-01-30T01:23:17;7.10;99.90
37274;DHT22;23161;51.250;5.554;2024-01-30T01:24:48;7.10;99.90
37274;DHT22;23161;51.250;5.554;2024-01-30T01:26:19;7.10;99.90
37274;DHT22;23161;51.250;5.554;2024-01-30T01:27:50;7.10;99.90
37274;DHT22;23161;51.250;5.554;2024-01-30T01:29:23;7.10;99.90
37274;DHT22;23161;51.250;5.554;2024-01-30T01:30:59;7.10;99.90
37274;DHT22;23161;51.250;5.554;2024-01-30T01:32:36;7.20;99.90
37274;DHT22;23161;51.250;5.554;2024-01-30T01:34:07;7.20;99.90
37274;DHT22;23161;51.250;5.554;2024-01-30T01:35:38;7.30;99.90
37274;DHT22;23161;51.250;5.554;2024-01-30T01:37:09;7.20;99.90
37274;DHT22;23161;51.250;5.554;2024-01-30T01:38:40;7.20;99.90
37274;DHT22;23161;51.250;5.554;2024-01-30T01:40:11;7.30;99.90
37274;DHT22;23161;51.250;5.554;2024-01-30T01:41:42;7.30;99.90
37274;DHT22;23161;51.250;5.554;2024-01-30T01:43:13;7.40;99.90
37274;DHT22;23161;51.250;5.554;2024-01-30T01:44:44;7.40;99.90
37274;DHT22;23161;51.250;5.554;2024-01-30T01:46:15;7.40;99.90
37274;DHT22;23161;51.250;5.554;2024-01-30T01:47:49;7.30;99.90
37274;DHT22;23161;51.250;5.554;2024-01-30T01:49:22;7.40;99.90
37274;DHT22;23161;51.250;5.554;2024-01-30T01:50:54;7.30;99.90
37274;DHT22;23161;51.250;5.554;2024-01-30T01:52:25;7.30;99.90
37274;DHT22;23161;51.250;5.554;2024-01-30T01:53:57;7.20;99.90
37274;DHT22;23161;51.250;5.554;2024-01-30T01:55:30;7.20;99.90
37274;DHT22;23161;51.250;5.554;2024-01-30T01:57:01;7.20;99.90
37274;DHT22;23161;51.250;5.554;2024-01-30T01:58:32;7.10;99.90
37274;DHT22;23161;51.250;5.554;2024-01-30T02:00:04;7.10;99.90
37274;DHT22;23161;51.250;5.554;2024-01-30T02:01:39;7.00;99.90
37274;DHT22;23161;51.250;5.554;2024-01-30T02:03:14;7.10;99.90
37274;DHT22;23161;51.250;5.554;2024-01-30T02:04:48;7.10;99.90
37274;DHT22;23161;51.250;5.554;2024-01-30T02:06:20;7.20;99.90
37274;DHT22;23161;51.250;5.554;2024-01-30T02:07:51;7.30;99.90
37274;DHT22;23161;51.250;5.554;2024-01-30T02:09:22;7.30;99.90
37274;DHT22;23161;51.250;5.554;2024-01-30T02:10:53;7.40;99.90
37274;DHT22;23161;51.250;5.554;2024-01-30T02:12:24;7.50;99.90
37274;DHT22;23161;51.250;5.554;2024-01-30T02:13:55;7.50;99.90
37274;DHT22;23161;51.250;5.554;2024-01-30T02:15:26;7.50;99.90
37274;DHT22;23161;51.250;5.554;2024-01-30T02:16:56;7.50;99.90
37274;DHT22;23161;51.250;5.554;2024-01-30T02:19:59;7.60;99.90
37274;DHT22;23161;51.250;5.554;2024-01-30T02:21:30;7.70;99.90
37274;DHT22;23161;51.250;5.554;2024-01-30T02:23:01;7.60;99.90
37274;DHT22;23161;51.250;5.554;2024-01-30T02:24:33;7.70;99.90
37274;DHT22;23161;51.250;5.554;2024-01-30T02:26:04;7.70;99.90
37274;DHT22;23161;51.250;5.554;2024-01-30T02:27:35;7.80;99.90
37274;DHT22;23161;51.250;5.554;2024-01-30T02:29:05;7.80;99.90
37274;DHT22;23161;51.250;5.554;2024-01-30T02:30:36;7.80;99.90
37274;DHT22;23161;51.250;5.554;2024-01-30T02:32:07;7.80;99.90
37274;DHT22;23161;51.250;5.554;2024-01-30T02:33:38;7.80;99.90
37274;DHT22;23161;51.250;5.554;2024-01-30T02:35:08;7.80;99.90
37274;DHT22;23161;51.250;5.554;2024-01-30T02:36:42;7.80;99.90
37274;DHT22;23161;51.250;5.554;2024-01-30T02:38:15;7.70;99.90
37274;DHT22;23161;51.250;5.554;2024-01-30T02:39:47;7.70;99.90
37274;DHT22;23161;51.250;5.554;2024-01-30T02:41:18;7.80;99.90
37274;DHT22;23161;51.250;5.554;2024-01-30T02:42:49;7.70;99.90
37274;DHT22;23161;51.250;5.554;2024-01-30T02:44:20;7.80;99.90
37274;DHT22;23161;51.250;5.554;2024-01-30T02:45:51;7.80;99.90
37274;DHT22;23161;51.250;5.554;2024-01-30T02:47:22;7.90;99.90
37274;DHT22;23161;51.250;5.554;2024-01-30T02:48:53;8.00;99.90
37274;DHT22;23161;51.250;5.554;2024-01-30T02:50:24;8.00;99.90
37274;DHT22;23161;51.250;5.554;2024-01-30T02:51:54;8.00;99.90
37274;DHT22;23161;51.250;5.554;2024-01-30T02:53:27;8.20;99.90
37274;DHT22;23161;51.250;5.554;2024-01-30T02:56:29;8.10;99.90
37274;DHT22;23161;51.250;5.554;2024-01-30T02:57:59;8.20;99.90
37274;DHT22;23161;51.250;5.554;2024-01-30T02:59:30;8.10;99.90
37274;DHT22;23161;51.250;5.554;2024-01-30T03:01:04;8.30;99.90
37274;DHT22;23161;51.250;5.554;2024-01-30T03:02:35;8.40;99.90
37274;DHT22;23161;51.250;5.554;2024-01-30T03:05:37;8.40;99.90
37274;DHT22;23161;51.250;5.554;2024-01-30T03:07:08;8.40;99.90
37274;DHT22;23161;51.250;5.554;2024-01-30T03:08:39;8.40;99.90
37274;DHT22;23161;51.250;5.554;2024-01-30T03:10:10;8.50;99.90
37274;DHT22;23161;51.250;5.554;2024-01-30T03:11:41;8.50;99.90
37274;DHT22;23161;51.250;5.554;2024-01-30T03:13:12;8.50;99.90
37274;DHT22;23161;51.250;5.554;2024-01-30T03:14:42;8.50;99.90
37274;DHT22;23161;51.250;5.554;2024-01-30T03:16:13;8.60;99.90
37274;DHT22;23161;51.250;5.554;2024-01-30T03:17:44;8.60;99.90
37274;DHT22;23161;51.250;5.554;2024-01-30T03:20:46;8.60;99.90
37274;DHT22;23161;51.250;5.554;2024-01-30T03:22:17;8.60;99.90
37274;DHT22;23161;51.250;5.554;2024-01-30T03:23:48;8.50;99.90
37274;DHT22;23161;51.250;5.554;2024-01-30T03:25:19;8.40;99.90
37274;DHT22;23161;51.250;5.554;2024-01-30T03:26:50;8.40;99.90
37274;DHT22;23161;51.250;5.554;2024-01-30T03:28:21;8.40;99.90
37274;DHT22;23161;51.250;5.554;2024-01-30T03:29:51;8.40;99.90
37274;DHT22;23161;51.250;5.554;2024-01-30T03:31:23;8.40;99.90
37274;DHT22;23161;51.250;5.554;2024-01-30T03:32:54;8.40;99.90
37274;DHT22;23161;51.250;5.554;2024-01-30T03:34:25;8.50;99.90
37274;DHT22;23161;51.250;5.554;2024-01-30T03:35:56;8.60;99.90
37274;DHT22;23161;51.250;5.554;2024-01-30T03:37:27;8.70;99.90
37274;DHT22;23161;51.250;5.554;2024-01-30T03:38:57;8.90;99.90
37274;DHT22;23161;51.250;5.554;2024-01-30T03:40:28;8.90;99.90
37274;DHT22;23161;51.250;5.554;2024-01-30T03:41:59;8.90;99.90
37274;DHT22;23161;51.250;5.554;2024-01-30T03:43:30;8.90;99.90
37274;DHT22;23161;51.250;5.554;2024-01-30T03:45:01;8.90;99.90
37274;DHT22;23161;51.250;5.554;2024-01-30T03:46:33;8.90;99.90
37274;DHT22;23161;51.250;5.554;2024-01-30T03:48:04;8.90;99.90
37274;DHT22;23161;51.250;5.554;2024-01-30T03:49:35;8.90;99.90
37274;DHT22;23161;51.250;5.554;2024-01-30T03:51:05;9.00;99.90
37274;DHT22;23161;51.250;5.554;2024-01-30T03:52:36;9.00;99.90
37274;DHT22;23161;51.250;5.554;2024-01-30T03:54:07;9.10;99.90
37274;DHT22;23161;51.250;5.554;2024-01-30T03:55:38;9.10;99.90
37274;DHT22;23161;51.250;5.554;2024-01-30T03:57:08;9.10;99.90
37274;DHT22;23161;51.250;5.554;2024-01-30T03:58:39;9.10;99.90
37274;DHT22;23161;51.250;5.554;2024-01-30T04:00:10;9.20;99.90
37274;DHT22;23161;51.250;5.554;2024-01-30T04:01:46;9.10;99.90
37274;DHT22;23161;51.250;5.554;2024-01-30T04:03:17;9.10;99.90
37274;DHT22;23161;51.250;5.554;2024-01-30T04:04:48;9.10;99.90
37274;DHT22;23161;51.250;5.554;2024-01-30T04:06:19;9.00;99.90
37274;DHT22;23161;51.250;5.554;2024-01-30T04:07:50;9.00;99.90
37274;DHT22;23161;51.250;5.554;2024-01-30T04:09:20;9.00;99.90
37274;DHT22;23161;51.250;5.554;2024-01-30T04:10:51;9.00;99.90
37274;DHT22;23161;51.250;5.554;2024-01-30T04:12:22;9.00;99.90
37274;DHT22;23161;51.250;5.554;2024-01-30T04:13:53;9.10;99.90
37274;DHT22;23161;51.250;5.554;2024-01-30T04:15:24;9.10;99.90
37274;DHT22;23161;51.250;5.554;2024-01-30T04:16:54;9.10;99.90
37274;DHT22;23161;51.250;5.554;2024-01-30T04:18:27;9.10;99.90
37274;DHT22;23161;51.250;5.554;2024-01-30T04:19:58;9.10;99.90
37274;DHT22;23161;51.250;5.554;2024-01-30T04:21:28;9.10;99.90
37274;DHT22;23161;51.250;5.554;2024-01-30T04:23:00;9.10;99.90
37274;DHT22;23161;51.250;5.554;2024-01-30T04:24:31;9.10;99.90
37274;DHT22;23161;51.250;5.554;2024-01-30T04:26:02;9.10;99.90
37274;DHT22;23161;51.250;5.554;2024-01-30T04:27:33;9.10;99.90
37274;DHT22;23161;51.250;5.554;2024-01-30T04:29:04;9.00;99.90
37274;DHT22;23161;51.250;5.554;2024-01-30T04:32:06;9.10;99.90
37274;DHT22;23161;51.250;5.554;2024-01-30T04:33:37;9.20;99.90
37274;DHT22;23161;51.250;5.554;2024-01-30T04:35:08;9.20;99.90
37274;DHT22;23161;51.250;5.554;2024-01-30T04:36:38;9.20;99.90
37274;DHT22;23161;51.250;5.554;2024-01-30T04:38:09;9.20;99.90
37274;DHT22;23161;51.250;5.554;2024-01-30T04:39:40;9.30;99.90
37274;DHT22;23161;51.250;5.554;2024-01-30T04:42:42;9.30;99.90
37274;DHT22;23161;51.250;5.554;2024-01-30T04:44:13;9.40;99.90
37274;DHT22;23161;51.250;5.554;2024-01-30T04:45:44;9.40;99.90
37274;DHT22;23161;51.250;5.554;2024-01-30T04:47:16;9.40;99.90
37274;DHT22;23161;51.250;5.554;2024-01-30T04:48:47;9.30;99.90
37274;DHT22;23161;51.250;5.554;2024-01-30T04:50:17;9.30;99.90
37274;DHT22;23161;51.250;5.554;2024-01-30T04:53:20;9.40;99.90
37274;DHT22;23161;51.250;5.554;2024-01-30T04:54:50;9.50;99.90
37274;DHT22;23161;51.250;5.554;2024-01-30T04:56:21;9.50;99.90
37274;DHT22;23161;51.250;5.554;2024-01-30T04:57:52;9.50;99.90
37274;DHT22;23161;51.250;5.554;2024-01-30T04:59:23;9.50;99.90
37274;DHT22;23161;51.250;5.554;2024-01-30T05:00:54;9.50;99.90
37274;DHT22;23161;51.250;5.554;2024-01-30T05:02:24;9.60;99.90
37274;DHT22;23161;51.250;5.554;2024-01-30T05:03:55;9.60;99.90
37274;DHT22;23161;51.250;5.554;2024-01-30T05:05:27;9.60;99.90
37274;DHT22;23161;51.250;5.554;2024-01-30T05:06:57;9.50;99.90
37274;DHT22;23161;51.250;5.554;2024-01-30T05:08:29;9.50;99.90
37274;DHT22;23161;51.250;5.554;2024-01-30T05:09:59;9.60;99.90
37274;DHT22;23161;51.250;5.554;2024-01-30T05:11:31;9.60;99.90
37274;DHT22;23161;51.250;5.554;2024-01-30T05:14:33;9.50;99.90
37274;DHT22;23161;51.250;5.554;2024-01-30T05:16:04;9.60;99.90
37274;DHT22;23161;51.250;5.554;2024-01-30T05:17:35;9.50;99.90
37274;DHT22;23161;51.250;5.554;2024-01-30T05:19:05;9.50;99.90
37274;DHT22;23161;51.250;5.554;2024-01-30T05:20:36;9.50;99.90
37274;DHT22;23161;51.250;5.554;2024-01-30T05:22:07;9.50;99.90
37274;DHT22;23161;51.250;5.554;2024-01-30T05:23:38;9.60;99.90
37274;DHT22;23161;51.250;5.554;2024-01-30T05:25:09;9.60;99.90
37274;DHT22;23161;51.250;5.554;2024-01-30T05:26:39;9.60;99.90
37274;DHT22;23161;51.250;5.554;2024-01-30T05:28:10;9.60;99.90
37274;DHT22;23161;51.250;5.554;2024-01-30T05:29:41;9.50;99.90
37274;DHT22;23161;51.250;5.554;2024-01-30T05:31:12;9.70;99.90
37274;DHT22;23161;51.250;5.554;2024-01-30T05:32:43;9.70;99.90
37274;DHT22;23161;51.250;5.554;2024-01-30T05:34:14;9.80;99.90
37274;DHT22;23161;51.250;5.554;2024-01-30T05:35:45;9.80;99.90
37274;DHT22;23161;51.250;5.554;2024-01-30T05:37:16;9.70;99.90
37274;DHT22;23161;51.250;5.554;2024-01-30T05:38:48;9.70;99.90
37274;DHT22;23161;51.250;5.554;2024-01-30T05:40:19;9.70;99.90
37274;DHT22;23161;51.250;5.554;2024-01-30T05:41:49;9.70;99.90
37274;DHT22;23161;51.250;5.554;2024-01-30T05:43:20;9.70;99.90
37274;DHT22;23161;51.250;5.554;2024-01-30T05:44:51;9.70;99.90
37274;DHT22;23161;51.250;5.554;2024-01-30T05:46:22;9.60;99.90
37274;DHT22;23161;51.250;5.554;2024-01-30T05:47:53;9.70;99.90
37274;DHT22;23161;51.250;5.554;2024-01-30T05:49:24;9.70;99.90
37274;DHT22;23161;51.250;5.554;2024-01-30T05:50:55;9.70;99.90
37274;DHT22;23161;51.250;5.554;2024-01-30T05:52:26;9.70;99.90
37274;DHT22;23161;51.250;5.554;2024-01-30T05:53:56;9.80;99.90
37274;DHT22;23161;51.250;5.554;2024-01-30T05:55:27;9.80;99.90
37274;DHT22;23161;51.250;5.554;2024-01-30T05:56:58;9.90;99.90
37274;DHT22;23161;51.250;5.554;2024-01-30T05:58:29;9.90;99.90
37274;DHT22;23161;51.250;5.554;2024-01-30T06:00:01;9.90;99.90
37274;DHT22;23161;51.250;5.554;2024-01-30T06:01:35;9.90;99.90
37274;DHT22;23161;51.250;5.554;2024-01-30T06:03:07;9.90;99.90
37274;DHT22;23161;51.250;5.554;2024-01-30T06:04:37;9.90;99.90
37274;DHT22;23161;51.250;5.554;2024-01-30T06:06:09;9.90;99.90
37274;DHT22;23161;51.250;5.554;2024-01-30T06:07:40;9.90;99.90
37274;DHT22;23161;51.250;5.554;2024-01-30T06:09:11;9.90;99.90
37274;DHT22;23161;51.250;5.554;2024-01-30T06:10:43;9.90;99.90
37274;DHT22;23161;51.250;5.554;2024-01-30T06:12:14;9.90;99.90
37274;DHT22;23161;51.250;5.554;2024-01-30T06:13:44;9.90;99.90
37274;DHT22;23161;51.250;5.554;2024-01-30T06:15:15;9.90;99.90
37274;DHT22;23161;51.250;5.554;2024-01-30T06:16:46;9.90;99.90
37274;DHT22;23161;51.250;5.554;2024-01-30T06:18:17;9.90;99.90
37274;DHT22;23161;51.250;5.554;2024-01-30T06:19:48;9.90;99.90
37274;DHT22;23161;51.250;5.554;2024-01-30T06:21:19;9.90;99.90
37274;DHT22;23161;51.250;5.554;2024-01-30T06:22:50;9.90;99.90
37274;DHT22;23161;51.250;5.554;2024-01-30T06:24:21;9.90;99.90
37274;DHT22;23161;51.250;5.554;2024-01-30T06:25:52;9.90;99.90
37274;DHT22;23161;51.250;5.554;2024-01-30T06:27:23;9.80;99.90
37274;DHT22;23161;51.250;5.554;2024-01-30T06:28:54;9.90;99.90
37274;DHT22;23161;51.250;5.554;2024-01-30T06:30:25;9.90;99.90
37274;DHT22;23161;51.250;5.554;2024-01-30T06:31:55;9.90;99.90
37274;DHT22;23161;51.250;5.554;2024-01-30T06:33:27;9.90;99.90
37274;DHT22;23161;51.250;5.554;2024-01-30T06:34:58;9.90;99.90
37274;DHT22;23161;51.250;5.554;2024-01-30T06:36:29;9.90;99.90
37274;DHT22;23161;51.250;5.554;2024-01-30T06:37:59;9.90;99.90
37274;DHT22;23161;51.250;5.554;2024-01-30T06:39:30;9.90;99.90
37274;DHT22;23161;51.250;5.554;2024-01-30T06:41:01;9.90;99.90
37274;DHT22;23161;51.250;5.554;2024-01-30T06:42:32;9.90;99.90
37274;DHT22;23161;51.250;5.554;2024-01-30T06:44:03;9.90;99.90
37274;DHT22;23161;51.250;5.554;2024-01-30T06:45:38;9.90;99.90
37274;DHT22;23161;51.250;5.554;2024-01-30T06:47:10;9.90;99.90
37274;DHT22;23161;51.250;5.554;2024-01-30T06:48:41;9.80;99.90
37274;DHT22;23161;51.250;5.554;2024-01-30T06:50:11;9.90;99.90
37274;DHT22;23161;51.250;5.554;2024-01-30T06:51:43;9.80;99.90
37274;DHT22;23161;51.250;5.554;2024-01-30T06:53:14;9.80;99.90
37274;DHT22;23161;51.250;5.554;2024-01-30T06:54:45;9.80;99.90
37274;DHT22;23161;51.250;5.554;2024-01-30T06:56:16;9.80;99.90
37274;DHT22;23161;51.250;5.554;2024-01-30T06:57:51;9.80;99.90
37274;DHT22;23161;51.250;5.554;2024-01-30T06:59:22;9.80;99.90
37274;DHT22;23161;51.250;5.554;2024-01-30T07:00:53;9.80;99.90
37274;DHT22;23161;51.250;5.554;2024-01-30T07:02:23;9.80;99.90
37274;DHT22;23161;51.250;5.554;2024-01-30T07:03:55;9.80;99.90
37274;DHT22;23161;51.250;5.554;2024-01-30T07:05:26;9.80;99.90
37274;DHT22;23161;51.250;5.554;2024-01-30T07:06:56;9.80;99.90
37274;DHT22;23161;51.250;5.554;2024-01-30T07:08:28;9.80;99.90
37274;DHT22;23161;51.250;5.554;2024-01-30T07:09:58;8.40;99.90
37274;DHT22;23161;51.250;5.554;2024-01-30T07:11:29;9.80;99.90
37274;DHT22;23161;51.250;5.554;2024-01-30T07:13:01;9.90;99.90
37274;DHT22;23161;51.250;5.554;2024-01-30T07:14:31;9.90;99.90
37274;DHT22;23161;51.250;5.554;2024-01-30T07:16:02;9.90;99.90
37274;DHT22;23161;51.250;5.554;2024-01-30T07:17:34;9.90;99.90
37274;DHT22;23161;51.250;5.554;2024-01-30T07:19:05;9.90;99.90
37274;DHT22;23161;51.250;5.554;2024-01-30T07:20:36;9.90;99.90
37274;DHT22;23161;51.250;5.554;2024-01-30T07:22:07;9.90;99.90
37274;DHT22;23161;51.250;5.554;2024-01-30T07:23:38;9.90;99.90
37274;DHT22;23161;51.250;5.554;2024-01-30T07:25:12;9.80;99.90
37274;DHT22;23161;51.250;5.554;2024-01-30T07:26:43;9.90;99.90
37274;DHT22;23161;51.250;5.554;2024-01-30T07:28:14;9.80;99.90
37274;DHT22;23161;51.250;5.554;2024-01-30T07:29:47;9.90;99.90
37274;DHT22;23161;51.250;5.554;2024-01-30T07:31:18;9.90;99.90
37274;DHT22;23161;51.250;5.554;2024-01-30T07:32:51;9.90;99.90
37274;DHT22;23161;51.250;5.554;2024-01-30T07:34:22;9.90;99.90
37274;DHT22;23161;51.250;5.554;2024-01-30T07:35:53;10.00;99.90
37274;DHT22;23161;51.250;5.554;2024-01-30T07:37:24;10.00;99.90
37274;DHT22;23161;51.250;5.554;2024-01-30T07:38:55;10.00;99.90
37274;DHT22;23161;51.250;5.554;2024-01-30T07:40:25;10.00;99.90
37274;DHT22;23161;51.250;5.554;2024-01-30T07:41:56;10.10;99.90
37274;DHT22;23161;51.250;5.554;2024-01-30T07:43:27;10.00;99.90
37274;DHT22;23161;51.250;5.554;2024-01-30T07:45:00;10.10;99.90
37274;DHT22;23161;51.250;5.554;2024-01-30T07:46:31;10.00;99.90
37274;DHT22;23161;51.250;5.554;2024-01-30T07:48:02;10.00;99.90
37274;DHT22;23161;51.250;5.554;2024-01-30T07:49:33;9.90;99.90
37274;DHT22;23161;51.250;5.554;2024-01-30T07:51:03;9.90;99.90
37274;DHT22;23161;51.250;5.554;2024-01-30T07:52:34;9.90;99.90
37274;DHT22;23161;51.250;5.554;2024-01-30T07:54:14;9.90;99.90
37274;DHT22;23161;51.250;5.554;2024-01-30T07:55:48;9.90;99.90
37274;DHT22;23161;51.250;5.554;2024-01-30T07:57:20;9.90;99.90
37274;DHT22;23161;51.250;5.554;2024-01-30T07:58:52;9.90;99.90
37274;DHT22;23161;51.250;5.554;2024-01-30T08:00:23;9.90;99.90
37274;DHT22;23161;51.250;5.554;2024-01-30T08:01:54;9.90;99.90
37274;DHT22;23161;51.250;5.554;2024-01-30T08:03:25;9.90;99.90
37274;DHT22;23161;51.250;5.554;2024-01-30T08:04:56;9.90;99.90
37274;DHT22;23161;51.250;5.554;2024-01-30T08:06:26;9.80;99.90
37274;DHT22;23161;51.250;5.554;2024-01-30T08:07:57;9.80;99.90
37274;DHT22;23161;51.250;5.554;2024-01-30T08:09:28;9.90;99.90
37274;DHT22;23161;51.250;5.554;2024-01-30T08:10:59;9.90;99.90
37274;DHT22;23161;51.250;5.554;2024-01-30T08:12:30;9.90;99.90
37274;DHT22;23161;51.250;5.554;2024-01-30T08:14:01;9.90;99.90
37274;DHT22;23161;51.250;5.554;2024-01-30T08:15:31;9.90;99.90
37274;DHT22;23161;51.250;5.554;2024-01-30T08:17:04;9.90;99.90
37274;DHT22;23161;51.250;5.554;2024-01-30T08:18:34;9.90;99.90
37274;DHT22;23161;51.250;5.554;2024-01-30T08:20:06;9.90;99.90
37274;DHT22;23161;51.250;5.554;2024-01-30T08:21:39;9.90;99.90
37274;DHT22;23161;51.250;5.554;2024-01-30T08:23:10;10.00;99.90
37274;DHT22;23161;51.250;5.554;2024-01-30T08:24:41;10.00;99.90
37274;DHT22;23161;51.250;5.554;2024-01-30T08:26:12;10.10;99.90
37274;DHT22;23161;51.250;5.554;2024-01-30T08:27:43;10.10;99.90
37274;DHT22;23161;51.250;5.554;2024-01-30T08:29:14;10.10;99.90
37274;DHT22;23161;51.250;5.554;2024-01-30T08:30:45;10.10;99.90
37274;DHT22;23161;51.250;5.554;2024-01-30T08:32:16;10.10;99.90
37274;DHT22;23161;51.250;5.554;2024-01-30T08:33:46;10.20;99.90
37274;DHT22;23161;51.250;5.554;2024-01-30T08:35:17;10.20;99.90
37274;DHT22;23161;51.250;5.554;2024-01-30T08:36:48;10.30;99.90
37274;DHT22;23161;51.250;5.554;2024-01-30T08:38:19;10.30;99.90
37274;DHT22;23161;51.250;5.554;2024-01-30T08:39:50;10.30;99.90
37274;DHT22;23161;51.250;5.554;2024-01-30T08:41:21;10.40;99.90
37274;DHT22;23161;51.250;5.554;2024-01-30T08:42:52;10.40;99.90
37274;DHT22;23161;51.250;5.554;2024-01-30T08:44:34;10.40;99.90
37274;DHT22;23161;51.250;5.554;2024-01-30T08:46:06;10.40;99.90
37274;DHT22;23161;51.250;5.554;2024-01-30T08:49:08;10.50;99.90
37274;DHT22;23161;51.250;5.554;2024-01-30T08:50:39;10.50;99.90
37274;DHT22;23161;51.250;5.554;2024-01-30T08:52:10;10.50;99.90
37274;DHT22;23161;51.250;5.554;2024-01-30T08:53:41;10.60;99.90
37274;DHT22;23161;51.250;5.554;2024-01-30T08:55:12;10.60;99.90
37274;DHT22;23161;51.250;5.554;2024-01-30T08:56:43;10.60;99.90
37274;DHT22;23161;51.250;5.554;2024-01-30T08:58:14;10.60;99.90
37274;DHT22;23161;51.250;5.554;2024-01-30T08:59:46;10.60;99.90
37274;DHT22;23161;51.250;5.554;2024-01-30T09:02:48;10.60;99.90
37274;DHT22;23161;51.250;5.554;2024-01-30T09:04:18;10.60;99.90
37274;DHT22;23161;51.250;5.554;2024-01-30T09:05:50;10.60;99.90
37274;DHT22;23161;51.250;5.554;2024-01-30T09:07:21;10.60;99.90
37274;DHT22;23161;51.250;5.554;2024-01-30T09:08:51;10.60;99.90
37274;DHT22;23161;51.250;5.554;2024-01-30T09:10:22;10.70;99.90
37274;DHT22;23161;51.250;5.554;2024-01-30T09:11:53;10.70;99.90
37274;DHT22;23161;51.250;5.554;2024-01-30T09:13:24;10.70;99.90
37274;DHT22;23161;51.250;5.554;2024-01-30T09:14:55;10.70;99.90
37274;DHT22;23161;51.250;5.554;2024-01-30T09:16:26;10.70;99.90
37274;DHT22;23161;51.250;5.554;2024-01-30T09:17:57;10.80;99.90
37274;DHT22;23161;51.250;5.554;2024-01-30T09:19:27;10.70;99.90
37274;DHT22;23161;51.250;5.554;2024-01-30T09:20:58;10.80;99.90
37274;DHT22;23161;51.250;5.554;2024-01-30T09:22:29;10.80;99.90
37274;DHT22;23161;51.250;5.554;2024-01-30T09:24:03;10.90;99.90
37274;DHT22;23161;51.250;5.554;2024-01-30T09:25:37;10.90;99.90
37274;DHT22;23161;51.250;5.554;2024-01-30T09:27:07;10.90;99.90
37274;DHT22;23161;51.250;5.554;2024-01-30T09:28:38;10.90;99.90
37274;DHT22;23161;51.250;5.554;2024-01-30T09:30:09;10.90;99.90
37274;DHT22;23161;51.250;5.554;2024-01-30T09:31:43;11.00;99.90
37274;DHT22;23161;51.250;5.554;2024-01-30T09:33:14;11.00;99.90
37274;DHT22;23161;51.250;5.554;2024-01-30T09:34:45;11.00;99.90
37274;DHT22;23161;51.250;5.554;2024-01-30T09:36:16;11.00;99.90
37274;DHT22;23161;51.250;5.554;2024-01-30T09:37:49;11.10;99.90
37274;DHT22;23161;51.250;5.554;2024-01-30T09:39:19;11.10;99.90
37274;DHT22;23161;51.250;5.554;2024-01-30T09:40:54;11.10;99.90
37274;DHT22;23161;51.250;5.554;2024-01-30T09:42:36;11.20;99.90
37274;DHT22;23161;51.250;5.554;2024-01-30T09:44:08;11.20;99.90
37274;DHT22;23161;51.250;5.554;2024-01-30T09:45:40;11.20;99.90
37274;DHT22;23161;51.250;5.554;2024-01-30T09:48:46;11.20;99.90
37274;DHT22;23161;51.250;5.554;2024-01-30T09:50:17;11.20;99.90
37274;DHT22;23161;51.250;5.554;2024-01-30T09:51:49;11.20;99.90
37274;DHT22;23161;51.250;5.554;2024-01-30T09:53:22;11.20;99.90
37274;DHT22;23161;51.250;5.554;2024-01-30T09:54:53;11.20;99.90
37274;DHT22;23161;51.250;5.554;2024-01-30T09:56:24;11.30;99.90
37274;DHT22;23161;51.250;5.554;2024-01-30T09:57:55;11.30;99.90
37274;DHT22;23161;51.250;5.554;2024-01-30T09:59:26;11.30;99.90
37274;DHT22;23161;51.250;5.554;2024-01-30T10:00:57;11.30;99.90
37274;DHT22;23161;51.250;5.554;2024-01-30T10:02:27;11.50;99.90